Time;durP1;ratioP1;P1;durP2;ratioP2;P2;SDS_P1;SDS_P2;PMS_P1;PMS_P2;Temp;Humidity;BMP_temperature;BMP_pressure;BME280_temperature;BME280_humidity;BME280_pressure;Samples;Min_cycle;Max_cycle;Signal;HPM_P1;HPM_P2
2023/05/12 00:01:46;;;;;;;8.10;7.30;;;12.60;99.90;;;;;;6270268;28;20459;-82
2023/05/12 00:04:48;;;;;;;7.80;7.00;;;12.60;99.90;;;;;;6269424;28;20049;-82
2023/05/12 00:07:49;;;;;;;8.02;7.22;;;12.50;99.90;;;;;;6267761;28;20038;-81
2023/05/12 00:10:51;;;;;;;8.75;6.78;;;12.50;99.90;;;;;;6266895;28;20515;-81
2023/05/12 00:13:55;;;;;;;8.75;7.47;;;12.50;99.90;;;;;;6268825;28;20046;-82
2023/05/12 00:16:57;;;;;;;9.13;6.75;;;12.50;99.90;;;;;;6269218;28;20053;-80
2023/05/12 00:19:59;;;;;;;9.68;7.90;;;12.50;99.90;;;;;;6270376;28;20048;-82
2023/05/12 00:23:00;;;;;;;11.80;8.57;;;12.50;99.90;;;;;;6270656;28;20045;-83
2023/05/12 00:26:02;;;;;;;15.52;8.88;;;12.50;99.90;;;;;;6267896;28;20668;-81
2023/05/12 00:29:05;;;;;;;11.48;8.80;;;12.50;99.90;;;;;;6267044;28;20049;-81
2023/05/12 00:32:07;;;;;;;13.80;11.18;;;12.50;99.90;;;;;;6265749;28;20049;-83
2023/05/12 00:35:09;;;;;;;10.68;9.27;;;12.50;99.90;;;;;;6265461;28;20072;-82
2023/05/12 00:38:11;;;;;;;11.23;9.80;;;12.50;99.90;;;;;;6267272;28;20042;-80
2023/05/12 00:41:13;;;;;;;10.88;9.27;;;12.50;99.90;;;;;;6263900;28;20049;-83
2023/05/12 00:44:17;;;;;;;9.77;8.43;;;12.50;99.90;;;;;;6263579;28;20052;-84
2023/05/12 00:47:20;;;;;;;10.43;8.80;;;12.50;99.90;;;;;;6261032;28;20447;-81
2023/05/12 00:50:22;;;;;;;12.27;10.43;;;12.50;99.90;;;;;;6261585;28;20049;-82
2023/05/12 00:53:24;;;;;;;12.48;9.73;;;12.50;99.90;;;;;;6262891;28;20049;-82
2023/05/12 00:56:26;;;;;;;10.13;9.00;;;12.50;99.90;;;;;;6263063;28;20049;-82
2023/05/12 00:59:29;;;;;;;11.88;9.98;;;12.50;99.90;;;;;;6260655;28;20057;-81
2023/05/12 01:02:31;;;;;;;14.50;10.73;;;12.50;99.90;;;;;;6260681;28;20045;-81
2023/05/12 01:05:46;;;;;;;15.07;11.77;;;12.50;99.90;;;;;;6260637;28;20055;-82
2023/05/12 01:08:47;;;;;;;15.70;11.68;;;12.50;99.90;;;;;;6261766;28;20068;-81
2023/05/12 01:11:49;;;;;;;14.98;10.48;;;12.50;99.90;;;;;;6269588;28;20056;-83
2023/05/12 01:14:54;;;;;;;16.50;11.43;;;12.60;99.90;;;;;;6266707;28;20045;-82
2023/05/12 01:18:00;;;;;;;13.48;10.68;;;12.50;99.90;;;;;;6265139;28;20048;-82
2023/05/12 01:21:02;;;;;;;17.00;11.68;;;12.60;99.90;;;;;;6265177;28;20045;-83
2023/05/12 01:24:08;;;;;;;17.70;11.85;;;12.60;99.90;;;;;;6263635;28;20052;-82
2023/05/12 01:27:12;;;;;;;13.15;10.52;;;12.60;99.90;;;;;;6263714;28;20043;-83
2023/05/12 01:30:17;;;;;;;14.82;11.35;;;12.60;99.90;;;;;;6263690;28;20041;-83
2023/05/12 01:33:19;;;;;;;13.55;10.68;;;12.50;99.90;;;;;;6263737;28;20075;-81
2023/05/12 01:36:20;;;;;;;13.55;10.95;;;12.50;99.90;;;;;;6262175;28;20057;-82
2023/05/12 01:39:22;;;;;;;12.68;9.00;;;12.50;99.90;;;;;;6261358;28;20059;-82
2023/05/12 01:42:25;;;;;;;17.95;10.52;;;12.50;99.90;;;;;;6261626;28;20416;-82
2023/05/12 01:45:27;;;;;;;13.93;10.25;;;12.60;99.90;;;;;;6262461;28;20075;-83
2023/05/12 01:48:28;;;;;;;13.60;10.48;;;12.60;99.90;;;;;;6262480;28;20045;-83
2023/05/12 01:51:30;;;;;;;17.13;12.57;;;12.70;99.90;;;;;;6262218;28;20049;-81
2023/05/12 01:54:32;;;;;;;12.38;10.50;;;12.60;99.90;;;;;;6260613;28;20051;-82
2023/05/12 01:57:35;;;;;;;47.13;16.10;;;12.60;99.90;;;;;;6260634;28;20060;-83
2023/05/12 02:00:36;;;;;;;14.65;10.90;;;12.60;99.90;;;;;;6261594;28;20050;-82
2023/05/12 02:03:38;;;;;;;16.33;11.57;;;12.60;99.90;;;;;;6259770;28;20042;-82
2023/05/12 02:06:40;;;;;;;17.13;11.23;;;12.60;99.90;;;;;;6261351;28;20088;-81
2023/05/12 02:09:42;;;;;;;12.75;10.32;;;12.60;99.90;;;;;;6260839;28;20052;-82
2023/05/12 02:12:45;;;;;;;19.10;11.38;;;12.60;99.90;;;;;;6260896;28;20045;-83
2023/05/12 02:15:46;;;;;;;12.63;10.38;;;12.70;99.90;;;;;;6260332;28;20056;-82
2023/05/12 02:18:48;;;;;;;13.60;10.85;;;12.70;99.90;;;;;;6262242;28;20050;-82
2023/05/12 02:21:49;;;;;;;17.83;11.27;;;12.70;99.90;;;;;;6259935;28;20045;-82
2023/05/12 02:24:51;;;;;;;15.07;11.77;;;12.70;99.90;;;;;;6261929;28;20052;-82
2023/05/12 02:27:54;;;;;;;16.30;11.43;;;12.70;99.90;;;;;;6260581;28;20046;-82
2023/05/12 02:30:56;;;;;;;16.33;11.45;;;12.70;99.90;;;;;;6258907;28;20060;-81
2023/05/12 02:33:58;;;;;;;20.52;12.95;;;12.70;99.90;;;;;;6258899;28;20073;-83
2023/05/12 02:37:00;;;;;;;15.05;11.88;;;12.70;99.90;;;;;;6259488;28;20069;-82
2023/05/12 02:40:01;;;;;;;16.65;12.32;;;12.70;99.90;;;;;;6259181;28;20439;-81
2023/05/12 02:43:05;;;;;;;18.35;13.35;;;12.70;99.90;;;;;;6259794;28;20099;-81
2023/05/12 02:46:07;;;;;;;22.05;13.85;;;12.70;99.90;;;;;;6259857;28;20042;-83
2023/05/12 02:49:08;;;;;;;17.60;12.82;;;12.70;99.90;;;;;;6259486;28;20062;-83
2023/05/12 02:52:10;;;;;;;18.40;12.50;;;12.70;99.90;;;;;;6260664;28;20049;-82
2023/05/12 02:55:12;;;;;;;18.48;11.77;;;12.70;99.90;;;;;;6259936;28;20061;-81
2023/05/12 02:58:15;;;;;;;18.48;12.38;;;12.70;99.90;;;;;;6259654;28;20052;-83
2023/05/12 03:01:17;;;;;;;18.08;12.82;;;12.70;99.90;;;;;;6262421;28;20060;-84
2023/05/12 03:04:18;;;;;;;18.80;13.43;;;12.70;99.90;;;;;;6262796;28;20061;-83
2023/05/12 03:07:20;;;;;;;16.35;12.23;;;12.70;99.90;;;;;;6262218;28;20053;-82
2023/05/12 03:10:22;;;;;;;16.02;11.40;;;12.70;99.90;;;;;;6263046;28;20045;-82
2023/05/12 03:13:25;;;;;;;16.27;11.80;;;12.70;99.90;;;;;;6263211;28;20056;-83
2023/05/12 03:16:26;;;;;;;16.35;12.65;;;12.70;99.90;;;;;;6264017;28;20045;-82
2023/05/12 03:19:28;;;;;;;17.42;12.90;;;12.70;99.90;;;;;;6263344;28;20060;-82
2023/05/12 03:22:30;;;;;;;15.48;12.07;;;12.70;99.90;;;;;;6263944;28;20118;-81
2023/05/12 03:25:33;;;;;;;15.30;12.70;;;12.70;99.90;;;;;;6263328;28;20059;-82
2023/05/12 03:28:37;;;;;;;16.90;12.75;;;12.60;99.90;;;;;;6263972;28;20137;-83
2023/05/12 03:31:38;;;;;;;19.75;12.68;;;12.70;99.90;;;;;;6263431;28;20045;-82
2023/05/12 03:34:40;;;;;;;16.95;13.15;;;12.70;99.90;;;;;;6265445;28;20051;-82
2023/05/12 03:37:42;;;;;;;13.82;12.27;;;12.60;99.90;;;;;;6265460;28;20052;-82
2023/05/12 03:40:43;;;;;;;15.00;11.65;;;12.60;99.90;;;;;;6266949;28;20053;-81
2023/05/12 03:43:46;;;;;;;17.55;13.43;;;12.60;99.90;;;;;;6266468;28;20046;-81
2023/05/12 03:46:48;;;;;;;16.48;10.40;;;12.70;99.90;;;;;;6266103;28;20045;-80
2023/05/12 03:49:51;;;;;;;15.93;11.57;;;12.70;99.90;;;;;;6255395;28;20053;-82
2023/05/12 03:52:54;;;;;;;17.35;12.75;;;12.70;99.90;;;;;;6253267;28;20415;-81
2023/05/12 03:55:56;;;;;;;16.00;11.73;;;12.70;99.90;;;;;;6257754;28;20052;-84
2023/05/12 03:58:59;;;;;;;16.63;11.40;;;12.70;99.90;;;;;;6262076;28;20051;-83
2023/05/12 04:02:01;;;;;;;14.75;11.50;;;12.70;99.90;;;;;;6265887;28;20049;-81
2023/05/12 04:05:06;;;;;;;14.32;11.00;;;12.60;99.90;;;;;;6265955;28;20045;-81
2023/05/12 04:08:08;;;;;;;16.73;11.85;;;12.70;99.90;;;;;;6265048;28;20111;-82
2023/05/12 04:11:10;;;;;;;13.32;11.85;;;12.70;99.90;;;;;;6264222;28;20054;-81
2023/05/12 04:14:13;;;;;;;18.58;13.55;;;12.60;99.90;;;;;;6264748;28;20037;-84
2023/05/12 04:17:17;;;;;;;14.60;11.07;;;12.60;99.90;;;;;;6266129;28;20049;-82
2023/05/12 04:20:19;;;;;;;17.52;12.27;;;12.60;99.90;;;;;;6264892;28;20436;-84
2023/05/12 04:23:21;;;;;;;17.58;12.43;;;12.60;99.90;;;;;;6269795;28;20057;-82
2023/05/12 04:26:22;;;;;;;17.50;11.95;;;12.60;99.90;;;;;;6271514;28;20052;-83
2023/05/12 04:29:25;;;;;;;17.60;13.05;;;12.50;99.90;;;;;;6294063;23;20060;-81
2023/05/12 04:32:27;;;;;;;18.10;13.00;;;12.60;99.90;;;;;;6289256;28;20049;-78
2023/05/12 04:35:29;;;;;;;16.73;12.65;;;12.70;99.90;;;;;;6289919;28;20045;-80
2023/05/12 04:38:31;;;;;;;17.35;13.38;;;12.70;99.90;;;;;;6277410;28;20041;-82
2023/05/12 04:41:32;;;;;;;16.73;12.18;;;12.70;99.90;;;;;;6263936;28;20109;-80
2023/05/12 04:44:36;;;;;;;16.90;11.43;;;12.70;99.90;;;;;;6265229;28;20045;-81
2023/05/12 04:47:37;;;;;;;16.10;12.68;;;12.80;99.90;;;;;;6264495;28;20045;-82
2023/05/12 04:50:39;;;;;;;15.15;10.73;;;12.80;99.90;;;;;;6261900;28;20143;-79
2023/05/12 04:53:41;;;;;;;13.20;10.73;;;12.80;99.90;;;;;;6260132;28;20099;-80
2023/05/12 04:56:43;;;;;;;11.73;9.75;;;12.80;99.90;;;;;;6266092;28;20056;-80
2023/05/12 04:59:46;;;;;;;8.93;8.00;;;12.90;99.90;;;;;;6265999;28;20456;-80
2023/05/12 05:02:47;;;;;;;12.68;9.38;;;12.90;99.90;;;;;;6266248;28;20109;-82
2023/05/12 05:05:49;;;;;;;10.07;7.85;;;12.90;99.90;;;;;;6266080;28;20059;-79
2023/05/12 05:08:52;;;;;;;12.52;8.27;;;12.90;99.90;;;;;;6267079;28;20045;-81
2023/05/12 05:11:53;;;;;;;10.82;7.53;;;12.90;99.90;;;;;;6266230;28;20053;-81
2023/05/12 05:14:56;;;;;;;9.65;8.65;;;12.90;99.90;;;;;;6265322;28;20044;-79
2023/05/12 05:17:58;;;;;;;10.57;8.15;;;12.90;99.90;;;;;;6265893;28;20064;-82
2023/05/12 05:21:00;;;;;;;9.02;7.70;;;12.90;99.90;;;;;;6266269;28;20049;-83
2023/05/12 05:24:02;;;;;;;9.27;7.88;;;12.90;99.90;;;;;;6265591;28;20045;-83
2023/05/12 05:27:04;;;;;;;8.80;7.38;;;12.90;99.90;;;;;;6267625;28;20041;-83
2023/05/12 05:30:08;;;;;;;10.32;7.50;;;13.00;99.90;;;;;;6253600;28;20041;-82
2023/05/12 05:33:11;;;;;;;10.90;7.70;;;13.00;99.90;;;;;;6251630;28;20053;-82
2023/05/12 05:36:13;;;;;;;14.70;12.05;;;13.00;99.90;;;;;;6251075;28;20137;-82
2023/05/12 05:39:15;;;;;;;9.43;8.48;;;13.10;99.90;;;;;;6251110;28;20045;-81
2023/05/12 05:42:17;;;;;;;10.88;8.40;;;13.10;99.90;;;;;;6250721;28;20038;-82
2023/05/12 05:45:20;;;;;;;8.68;7.78;;;13.20;99.90;;;;;;6251328;28;20052;-80
2023/05/12 05:48:22;;;;;;;12.45;9.18;;;13.30;99.90;;;;;;6251625;28;20045;-82
2023/05/12 05:51:24;;;;;;;16.33;9.82;;;13.30;99.90;;;;;;6250790;28;20056;-81
2023/05/12 05:54:26;;;;;;;9.35;7.72;;;13.40;99.90;;;;;;6251047;28;20060;-82
2023/05/12 05:57:28;;;;;;;9.25;8.13;;;13.50;99.90;;;;;;6251194;28;20143;-80
2023/05/12 06:00:31;;;;;;;8.50;7.30;;;13.50;99.90;;;;;;6251037;28;20057;-82
2023/05/12 06:03:33;;;;;;;9.32;7.80;;;13.50;99.90;;;;;;6250611;28;20056;-81
2023/05/12 06:06:34;;;;;;;8.63;7.50;;;13.60;99.90;;;;;;6250629;28;20061;-81
2023/05/12 06:09:36;;;;;;;7.55;6.85;;;13.60;99.90;;;;;;6251390;28;20046;-81
2023/05/12 06:12:39;;;;;;;9.75;7.18;;;13.70;99.90;;;;;;6252262;28;20056;-82
2023/05/12 06:15:42;;;;;;;8.40;6.75;;;13.80;99.90;;;;;;6250435;28;20103;-81
2023/05/12 06:18:44;;;;;;;8.07;7.28;;;13.90;99.90;;;;;;6250517;28;20041;-80
2023/05/12 06:21:45;;;;;;;8.05;7.25;;;14.00;99.90;;;;;;6250532;28;20042;-81
2023/05/12 06:24:47;;;;;;;8.45;7.30;;;14.10;99.90;;;;;;6250379;28;20068;-81
2023/05/12 06:27:50;;;;;;;7.82;7.10;;;14.10;99.90;;;;;;6241280;28;20041;-82
2023/05/12 06:30:53;;;;;;;7.32;4.68;;;14.20;99.90;;;;;;6247713;28;20052;-81
2023/05/12 06:33:55;;;;;;;5.72;5.22;;;14.40;99.90;;;;;;6239141;28;20045;-81
2023/05/12 06:36:57;;;;;;;6.35;5.55;;;14.50;99.90;;;;;;6251303;28;20049;-82
2023/05/12 06:39:58;;;;;;;6.13;5.35;;;14.60;99.90;;;;;;6249290;28;20042;-80
2023/05/12 06:43:00;;;;;;;6.07;5.47;;;14.80;99.90;;;;;;6249569;28;20053;-81
2023/05/12 06:46:03;;;;;;;5.40;4.90;;;14.90;99.90;;;;;;6249731;28;20519;-82
2023/05/12 06:49:05;;;;;;;5.72;5.13;;;15.10;99.90;;;;;;6250101;28;20569;-81
2023/05/12 06:52:07;;;;;;;7.93;5.03;;;15.10;99.90;;;;;;6249594;28;20037;-81
2023/05/12 06:55:09;;;;;;;8.35;6.93;;;15.10;99.90;;;;;;6247932;28;20061;-83
2023/05/12 06:58:11;;;;;;;6.40;5.60;;;15.20;99.90;;;;;;6252266;28;20412;-80
2023/05/12 07:01:14;;;;;;;6.70;6.00;;;15.30;99.90;;;;;;6252635;28;20053;-83
2023/05/12 07:04:16;;;;;;;5.20;4.53;;;15.80;99.90;;;;;;6250565;28;20050;-82
2023/05/12 07:07:17;;;;;;;5.60;4.85;;;16.60;99.90;;;;;;6249889;28;20053;-82
2023/05/12 07:10:20;;;;;;;5.07;4.45;;;16.90;99.90;;;;;;6249373;28;20045;-84
2023/05/12 07:13:22;;;;;;;5.05;4.63;;;17.00;99.90;;;;;;6248696;28;20049;-82
2023/05/12 07:16:25;;;;;;;5.65;4.30;;;17.20;99.90;;;;;;6249711;28;20050;-84
2023/05/12 07:19:27;;;;;;;3.65;3.35;;;17.40;99.90;;;;;;6246396;28;20045;-83
2023/05/12 07:22:31;;;;;;;4.50;4.10;;;17.70;99.90;;;;;;6245713;28;20056;-81
2023/05/12 07:25:32;;;;;;;7.20;4.03;;;17.80;99.90;;;;;;6245691;28;20095;-82
2023/05/12 07:28:35;;;;;;;6.05;4.75;;;17.70;99.90;;;;;;6247631;28;20053;-81
2023/05/12 07:31:39;;;;;;;5.90;5.40;;;17.50;99.90;;;;;;6248621;28;20135;-83
2023/05/12 07:34:41;;;;;;;6.68;6.07;;;17.50;99.90;;;;;;6250092;28;20054;-82
2023/05/12 07:37:42;;;;;;;5.63;5.13;;;17.50;99.90;;;;;;6253637;28;20046;-83
2023/05/12 07:40:44;;;;;;;5.03;4.53;;;17.50;99.90;;;;;;6253370;28;20049;-81
2023/05/12 07:43:46;;;;;;;4.97;4.47;;;17.50;99.90;;;;;;6251826;28;20072;-83
2023/05/12 07:46:49;;;;;;;16.65;6.15;;;17.70;99.90;;;;;;6252364;28;20045;-82
2023/05/12 07:49:51;;;;;;;72.47;21.80;;;17.70;99.90;;;;;;6252673;28;20043;-83
2023/05/12 07:52:53;;;;;;;6.57;4.30;;;17.80;99.90;;;;;;6253442;28;20630;-81
2023/05/12 07:55:55;;;;;;;6.40;5.53;;;17.90;99.90;;;;;;6253108;28;20052;-82
2023/05/12 07:58:57;;;;;;;6.78;5.50;;;18.50;99.90;;;;;;6252279;28;20037;-82
2023/05/12 08:02:00;;;;;;;5.47;4.28;;;18.80;99.90;;;;;;6252926;28;20431;-83
2023/05/12 08:05:02;;;;;;;5.97;4.03;;;19.00;99.90;;;;;;6253017;28;20076;-83
2023/05/12 08:08:03;;;;;;;5.00;3.75;;;19.50;99.90;;;;;;6252005;28;20053;-83
2023/05/12 08:11:05;;;;;;;4.85;3.83;;;19.60;99.90;;;;;;6252472;28;20130;-82
2023/05/12 08:14:07;;;;;;;4.00;3.47;;;19.70;99.90;;;;;;6252689;28;20042;-83
2023/05/12 08:17:10;;;;;;;3.88;3.58;;;20.00;99.90;;;;;;6252986;28;20056;-82
2023/05/12 08:20:12;;;;;;;3.53;3.20;;;19.90;99.90;;;;;;6252239;28;20041;-82
2023/05/12 08:23:16;;;;;;;3.33;3.10;;;19.70;99.90;;;;;;6251731;28;20052;-83
2023/05/12 08:26:17;;;;;;;4.63;3.13;;;19.60;99.90;;;;;;6252860;28;20057;-83
2023/05/12 08:29:19;;;;;;;11.23;4.25;;;19.30;99.90;;;;;;6252126;28;20053;-82
2023/05/12 08:32:22;;;;;;;5.13;3.85;;;18.90;99.90;;;;;;6251311;28;20050;-83
2023/05/12 08:35:26;;;;;;;3.65;3.33;;;18.80;99.90;;;;;;6251882;28;20053;-82
2023/05/12 08:38:28;;;;;;;4.90;3.67;;;18.90;99.90;;;;;;6251981;28;20045;-84
2023/05/12 08:41:41;;;;;;;5.35;3.63;;;18.90;99.90;;;;;;6251831;28;20053;-83
2023/05/12 08:44:43;;;;;;;4.43;3.88;;;18.90;99.90;;;;;;6252047;28;20053;-82
2023/05/12 08:47:46;;;;;;;5.03;3.67;;;19.00;99.90;;;;;;6250947;28;20496;-83
2023/05/12 08:50:51;;;;;;;5.15;3.10;;;18.80;99.90;;;;;;6251679;28;20045;-82
2023/05/12 08:53:55;;;;;;;8.30;4.45;;;18.70;99.90;;;;;;6251590;28;20510;-81
2023/05/12 08:56:57;;;;;;;4.55;3.55;;;18.70;99.90;;;;;;6251954;28;20072;-83
2023/05/12 08:59:59;;;;;;;3.80;3.40;;;18.80;99.90;;;;;;6251186;28;20042;-82
2023/05/12 09:03:03;;;;;;;3.70;3.40;;;18.70;99.90;;;;;;6251497;28;20057;-82
2023/05/12 09:06:06;;;;;;;5.40;3.80;;;18.80;99.90;;;;;;6254010;28;20041;-84
2023/05/12 09:09:08;;;;;;;5.28;3.20;;;18.80;99.90;;;;;;6253357;28;20073;-83
2023/05/12 09:12:13;;;;;;;4.20;3.80;;;18.80;99.90;;;;;;6255061;28;20423;-83
2023/05/12 09:15:18;;;;;;;3.47;3.17;;;18.50;99.90;;;;;;6256104;28;20041;-83
2023/05/12 09:18:21;;;;;;;5.32;2.92;;;18.50;99.90;;;;;;6251577;28;20072;-83
2023/05/12 09:21:23;;;;;;;4.97;3.70;;;18.70;99.90;;;;;;6254327;28;20064;-83
2023/05/12 09:24:34;;;;;;;3.10;2.80;;;18.80;99.90;;;;;;6242573;28;20060;-82
2023/05/12 09:27:35;;;;;;;3.92;2.88;;;18.90;99.90;;;;;;6243364;28;20547;-82
2023/05/12 09:30:41;;;;;;;3.33;2.95;;;19.00;99.90;;;;;;6239529;28;20049;-82
2023/05/12 09:33:44;;;;;;;3.50;3.20;;;19.00;99.90;;;;;;6243786;28;20068;-82
2023/05/12 09:36:55;;;;;;;3.00;2.75;;;19.00;99.90;;;;;;6245177;28;20136;-84
2023/05/12 09:40:00;;;;;;;3.25;2.97;;;19.40;99.90;;;;;;6241650;28;20037;-83
2023/05/12 09:43:02;;;;;;;3.88;3.00;;;19.70;99.90;;;;;;6239836;28;20049;-82
2023/05/12 09:46:06;;;;;;;7.45;6.00;;;20.00;99.90;;;;;;6241913;28;20053;-83
2023/05/12 09:49:11;;;;;;;3.90;3.50;;;20.20;99.90;;;;;;6242571;28;20041;-84
2023/05/12 09:52:13;;;;;;;4.20;3.40;;;20.50;99.90;;;;;;6238631;28;20412;-82
2023/05/12 09:55:15;;;;;;;3.53;2.15;;;20.50;99.90;;;;;;6246173;28;20045;-81
2023/05/12 09:58:19;;;;;;;2.85;2.55;;;20.70;99.90;;;;;;6245507;28;20060;-82
2023/05/12 10:01:21;;;;;;;11.35;5.03;;;20.80;99.90;;;;;;6245161;28;20049;-82
2023/05/12 10:04:25;;;;;;;6.53;2.40;;;20.80;99.90;;;;;;6246236;28;20053;-84
2023/05/12 10:07:28;;;;;;;4.20;2.45;;;20.90;99.90;;;;;;6247530;28;20045;-82
2023/05/12 10:10:30;;;;;;;5.25;3.53;;;21.00;99.70;;;;;;6242702;28;20053;-82
2023/05/12 10:13:55;;;;;;;1.92;1.63;;;21.00;99.50;;;;;;6252106;28;20055;-85
2023/05/12 10:16:59;;;;;;;3.30;1.77;;;21.00;98.80;;;;;;6256687;28;20057;-82
2023/05/12 10:20:05;;;;;;;6.80;3.67;;;20.90;99.00;;;;;;6242877;28;20137;-82
2023/05/12 10:23:08;;;;;;;3.13;2.78;;;20.40;98.40;;;;;;6242386;28;20042;-83
2023/05/12 10:26:10;;;;;;;2.58;1.85;;;19.60;99.10;;;;;;6244574;28;20080;-81
2023/05/12 10:29:13;;;;;;;2.38;2.17;;;19.20;99.90;;;;;;6242140;28;20054;-82
2023/05/12 10:32:15;;;;;;;10.77;3.75;;;18.80;99.90;;;;;;6241526;28;20424;-82
2023/05/12 10:35:19;;;;;;;3.65;2.28;;;18.50;99.90;;;;;;6239597;28;20049;-82
2023/05/12 10:38:20;;;;;;;1.80;1.42;;;18.40;99.90;;;;;;6240137;28;20044;-81
2023/05/12 10:41:33;;;;;;;4.30;2.67;;;18.30;99.90;;;;;;6240756;28;20045;-81
2023/05/12 10:44:35;;;;;;;3.72;2.22;;;18.30;99.90;;;;;;6240262;28;20180;-81
2023/05/12 10:47:38;;;;;;;2.30;1.30;;;18.40;99.90;;;;;;6240074;28;20057;-81
2023/05/12 10:50:54;;;;;;;3.03;1.10;;;18.80;99.90;;;;;;6242952;28;20049;-82
2023/05/12 10:54:01;;;;;;;1.38;1.02;;;19.10;99.90;;;;;;6242435;28;20052;-82
2023/05/12 10:57:02;;;;;;;1.40;0.98;;;19.20;99.90;;;;;;6244756;28;20049;-81
2023/05/12 11:00:05;;;;;;;1.30;1.20;;;19.10;99.90;;;;;;6240335;28;20046;-81
2023/05/12 11:03:12;;;;;;;2.80;1.48;;;18.80;99.90;;;;;;6240788;28;20049;-81
2023/05/12 11:06:18;;;;;;;;;;;18.80;99.90;;;;;;6242625;28;20121;-82
2023/05/12 11:09:20;;;;;;;3.75;1.20;;;18.80;99.90;;;;;;6239848;28;19921;-83
2023/05/12 11:12:22;;;;;;;3.85;1.42;;;19.00;99.90;;;;;;6243484;28;20061;-82
2023/05/12 11:15:24;;;;;;;1.35;1.13;;;19.10;99.90;;;;;;6241953;28;20049;-83
2023/05/12 11:18:26;;;;;;;1.85;1.75;;;19.10;99.90;;;;;;6243104;28;20049;-82
2023/05/12 11:21:30;;;;;;;2.60;1.75;;;19.10;99.90;;;;;;6240833;28;20056;-81
2023/05/12 11:24:32;;;;;;;2.85;1.80;;;19.00;99.70;;;;;;6240336;28;20052;-83
2023/05/12 11:27:34;;;;;;;2.90;1.58;;;19.10;99.90;;;;;;6240661;28;20038;-81
2023/05/12 11:30:36;;;;;;;4.30;2.58;;;19.30;99.90;;;;;;6242646;28;20467;-82
2023/05/12 11:33:38;;;;;;;2.92;2.50;;;19.60;99.90;;;;;;6242666;28;20099;-82
2023/05/12 11:36:43;;;;;;;1.75;1.60;;;19.90;99.90;;;;;;6244120;28;20053;-83
2023/05/12 11:39:44;;;;;;;2.20;1.58;;;20.20;99.30;;;;;;6239100;28;20041;-83
2023/05/12 11:42:50;;;;;;;1.90;1.70;;;20.10;99.00;;;;;;6240783;28;20415;-82
2023/05/12 11:45:54;;;;;;;1.63;1.50;;;20.10;99.00;;;;;;6240922;28;20041;-83
2023/05/12 11:48:56;;;;;;;1.80;1.70;;;20.20;99.20;;;;;;6240501;28;20050;-83
2023/05/12 11:52:01;;;;;;;2.65;2.00;;;20.40;98.90;;;;;;6239145;28;20045;-82
2023/05/12 11:55:04;;;;;;;5.25;2.30;;;20.40;98.60;;;;;;6240670;28;20046;-81
2023/05/12 11:58:06;;;;;;;3.88;1.42;;;20.50;98.60;;;;;;6244413;28;20166;-84
2023/05/12 12:01:09;;;;;;;1.83;1.73;;;20.80;98.70;;;;;;6249653;28;20056;-82
2023/05/12 12:04:12;;;;;;;2.45;1.70;;;21.20;98.50;;;;;;6242907;28;20105;-83
2023/05/12 12:07:15;;;;;;;2.78;1.80;;;21.70;98.00;;;;;;6247737;28;20128;-84
2023/05/12 12:10:18;;;;;;;2.88;2.03;;;22.00;97.20;;;;;;6240938;28;20061;-83
2023/05/12 12:13:21;;;;;;;2.03;1.92;;;22.20;96.60;;;;;;6243612;28;20479;-83
2023/05/12 12:16:25;;;;;;;1.95;1.75;;;21.90;96.10;;;;;;6243057;28;20073;-84
2023/05/12 12:19:27;;;;;;;2.60;2.40;;;21.60;96.70;;;;;;6242678;28;20061;-85
2023/05/12 12:22:32;;;;;;;1.98;1.83;;;21.00;96.80;;;;;;6244702;28;20048;-84
2023/05/12 12:25:34;;;;;;;2.40;2.20;;;20.40;97.50;;;;;;6245096;28;20045;-84
2023/05/12 12:28:36;;;;;;;2.47;2.28;;;20.10;98.50;;;;;;6245015;28;20202;-84
2023/05/12 12:31:38;;;;;;;1.90;1.80;;;20.10;98.30;;;;;;6245261;28;20045;-83
2023/05/12 12:34:40;;;;;;;4.45;2.42;;;19.70;99.10;;;;;;6253326;28;20046;-85
2023/05/12 12:37:49;;;;;;;3.60;3.30;;;19.90;99.50;;;;;;6250295;28;20045;-84
2023/05/12 12:40:51;;;;;;;2.28;2.10;;;20.20;99.20;;;;;;6246285;28;20095;-86
2023/05/12 12:43:53;;;;;;;7.03;2.25;;;20.20;98.80;;;;;;6245971;28;20046;-84
2023/05/12 12:46:54;;;;;;;2.83;1.85;;;20.30;99.00;;;;;;6248296;28;20050;-83
2023/05/12 12:49:56;;;;;;;2.25;2.00;;;20.70;98.60;;;;;;6247769;28;20057;-84
2023/05/12 12:52:59;;;;;;;3.40;2.03;;;21.00;98.10;;;;;;6250161;28;20041;-84
2023/05/12 12:56:01;;;;;;;6.32;2.55;;;21.60;98.10;;;;;;6246832;28;20045;-84
2023/05/12 12:59:03;;;;;;;2.15;2.00;;;22.40;97.30;;;;;;6251258;28;20045;-81
2023/05/12 13:02:05;;;;;;;1.90;1.80;;;22.90;96.60;;;;;;6248146;28;20141;-84
2023/05/12 13:05:08;;;;;;;3.38;1.52;;;23.40;95.60;;;;;;6246375;28;20668;-83
2023/05/12 13:08:11;;;;;;;1.45;1.35;;;23.30;93.90;;;;;;6248896;28;20060;-85
2023/05/12 13:11:13;;;;;;;1.60;1.50;;;23.00;93.50;;;;;;6249018;28;20037;-84
2023/05/12 13:14:15;;;;;;;2.92;1.42;;;22.70;93.70;;;;;;6245196;28;20049;-83
2023/05/12 13:17:16;;;;;;;1.58;1.48;;;22.50;93.90;;;;;;6246377;28;20055;-84
2023/05/12 13:20:18;;;;;;;1.55;1.45;;;22.30;93.40;;;;;;6244068;28;20049;-83
2023/05/12 13:23:21;;;;;;;3.88;2.83;;;21.90;93.30;;;;;;6242507;28;20510;-84
2023/05/12 13:26:23;;;;;;;1.50;1.40;;;21.80;93.20;;;;;;6243734;28;20523;-83
2023/05/12 13:29:25;;;;;;;1.80;1.70;;;21.70;93.40;;;;;;6247125;28;20053;-84
2023/05/12 13:32:27;;;;;;;1.95;1.73;;;21.40;93.30;;;;;;6244203;28;20045;-84
2023/05/12 13:35:29;;;;;;;1.88;1.77;;;21.20;93.70;;;;;;6245339;28;20033;-84
2023/05/12 13:38:33;;;;;;;2.10;1.95;;;20.90;94.00;;;;;;6245432;28;20487;-83
2023/05/12 13:41:35;;;;;;;2.67;2.47;;;20.50;94.80;;;;;;6243932;28;20053;-83
2023/05/12 13:44:36;;;;;;;2.80;2.25;;;19.80;95.70;;;;;;6243944;28;20174;-80
2023/05/12 13:47:38;;;;;;;0.10;0.10;;;18.60;98.00;;;;;;6239698;28;20399;-81
2023/05/12 13:50:40;;;;;;;0.20;0.20;;;17.20;99.90;;;;;;6241370;28;20411;-81
2023/05/12 13:53:43;;;;;;;0.20;0.20;;;16.40;99.90;;;;;;6241657;28;20061;-82
2023/05/12 13:56:45;;;;;;;0.20;0.20;;;16.00;99.90;;;;;;6241980;28;20514;-82
2023/05/12 13:59:46;;;;;;;0.20;0.20;;;15.80;99.90;;;;;;6243501;28;20052;-82
2023/05/12 14:02:48;;;;;;;0.20;0.20;;;15.80;99.90;;;;;;6245059;28;20045;-82
2023/05/12 14:05:50;;;;;;;0.28;0.28;;;15.90;99.90;;;;;;6243106;28;20053;-82
2023/05/12 14:08:53;;;;;;;0.30;0.30;;;16.10;99.90;;;;;;6243545;28;20148;-82
2023/05/12 14:11:55;;;;;;;0.22;0.22;;;16.40;99.90;;;;;;6243542;28;20400;-83
2023/05/12 14:14:58;;;;;;;0.20;0.20;;;16.70;99.90;;;;;;6243850;28;20530;-83
2023/05/12 14:17:59;;;;;;;0.20;0.20;;;17.00;99.90;;;;;;6243487;28;20046;-84
2023/05/12 14:21:01;;;;;;;0.20;0.20;;;17.20;99.90;;;;;;6241951;28;20045;-83
2023/05/12 14:24:05;;;;;;;0.10;0.10;;;17.50;99.90;;;;;;6244203;28;20053;-84
2023/05/12 14:27:07;;;;;;;0.20;0.20;;;17.80;99.90;;;;;;6242274;28;20056;-83
2023/05/12 14:30:09;;;;;;;0.20;0.20;;;17.80;99.90;;;;;;6244551;28;20054;-83
2023/05/12 14:33:11;;;;;;;0.30;0.30;;;17.70;99.90;;;;;;6245156;28;20499;-82
2023/05/12 14:36:13;;;;;;;0.20;0.20;;;17.40;99.90;;;;;;6244307;28;20049;-83
2023/05/12 14:39:16;;;;;;;0.10;0.10;;;17.20;99.90;;;;;;6244487;28;20515;-82
2023/05/12 14:42:18;;;;;;;0.20;0.20;;;17.00;99.90;;;;;;6244196;28;20045;-82
2023/05/12 14:45:20;;;;;;;0.30;0.30;;;16.90;99.90;;;;;;6239912;28;20122;-80
2023/05/12 14:48:22;;;;;;;0.10;0.10;;;16.70;99.90;;;;;;6243479;28;20084;-82
2023/05/12 14:51:24;;;;;;;0.10;0.10;;;16.60;99.90;;;;;;6241481;28;20073;-81
2023/05/12 14:54:27;;;;;;;0.20;0.20;;;16.30;99.90;;;;;;6240904;28;20045;-82
2023/05/12 14:57:29;;;;;;;0.22;0.22;;;16.10;99.90;;;;;;6242140;28;20049;-82
2023/05/12 15:00:31;;;;;;;0.30;0.30;;;16.00;99.90;;;;;;6243054;28;20061;-82
2023/05/12 15:03:33;;;;;;;0.30;0.30;;;16.00;99.90;;;;;;6241115;28;20045;-82
2023/05/12 15:06:36;;;;;;;0.20;0.20;;;15.90;99.90;;;;;;6241377;28;20049;-81
2023/05/12 15:09:39;;;;;;;0.20;0.20;;;15.90;99.90;;;;;;6240237;28;20046;-82
2023/05/12 15:12:41;;;;;;;0.43;0.35;;;15.90;99.90;;;;;;6236677;28;20053;-80
2023/05/12 15:15:43;;;;;;;3.97;3.55;;;15.90;99.90;;;;;;6240645;28;20064;-81
2023/05/12 15:18:44;;;;;;;4.63;4.18;;;16.00;99.90;;;;;;6239826;28;20057;-82
2023/05/12 15:21:46;;;;;;;6.68;4.88;;;16.10;99.90;;;;;;6240732;28;20049;-82
2023/05/12 15:24:49;;;;;;;11.00;5.05;;;16.20;99.90;;;;;;6240329;28;20145;-81
2023/05/12 15:27:51;;;;;;;8.27;6.25;;;16.30;99.90;;;;;;6238809;28;20057;-82
2023/05/12 15:30:56;;;;;;;10.45;6.18;;;16.40;99.90;;;;;;6238479;28;20042;-82
2023/05/12 15:33:58;;;;;;;6.07;5.47;;;16.30;99.90;;;;;;6239307;28;20038;-82
2023/05/12 15:37:00;;;;;;;5.90;5.10;;;16.40;99.90;;;;;;6242176;28;20129;-82
2023/05/12 15:40:04;;;;;;;9.05;5.93;;;16.40;99.90;;;;;;6242328;28;20094;-81
2023/05/12 15:43:05;;;;;;;5.28;4.78;;;16.50;99.90;;;;;;6243130;28;20050;-83